sensor_id;sensor_type;location;lat;lon;timestamp;temperature;humidity
65472;DHT22;52068;50.710;14.492;2022-11-15T00:00:13;20.59;51.49
65472;DHT22;52068;50.710;14.492;2022-11-15T00:02:39;20.58;51.43
65472;DHT22;52068;50.710;14.492;2022-11-15T00:05:04;20.58;51.46
65472;DHT22;52068;50.710;14.492;2022-11-15T00:07:29;20.54;51.55
65472;DHT22;52068;50.710;14.492;2022-11-15T00:09:55;20.49;51.58
65472;DHT22;52068;50.710;14.492;2022-11-15T00:12:20;20.51;51.68
65472;DHT22;52068;50.710;14.492;2022-11-15T00:14:45;20.49;51.62
65472;DHT22;52068;50.710;14.492;2022-11-15T00:17:10;20.48;51.59
65472;DHT22;52068;50.710;14.492;2022-11-15T00:19:36;20.54;51.50
65472;DHT22;52068;50.710;14.492;2022-11-15T00:22:01;20.56;51.33
65472;DHT22;52068;50.710;14.492;2022-11-15T00:24:26;20.61;51.32
65472;DHT22;52068;50.710;14.492;2022-11-15T00:26:51;20.67;51.20
65472;DHT22;52068;50.710;14.492;2022-11-15T00:29:17;20.71;51.25
65472;DHT22;52068;50.710;14.492;2022-11-15T00:31:42;20.73;51.40
65472;DHT22;52068;50.710;14.492;2022-11-15T00:34:08;20.75;51.52
65472;DHT22;52068;50.710;14.492;2022-11-15T00:36:33;20.76;51.35
65472;DHT22;52068;50.710;14.492;2022-11-15T00:38:59;20.78;51.25
65472;DHT22;52068;50.710;14.492;2022-11-15T00:41:25;20.78;51.11
65472;DHT22;52068;50.710;14.492;2022-11-15T00:43:50;20.79;51.19
65472;DHT22;52068;50.710;14.492;2022-11-15T00:46:15;20.78;51.26
65472;DHT22;52068;50.710;14.492;2022-11-15T00:48:40;20.76;51.39
65472;DHT22;52068;50.710;14.492;2022-11-15T00:51:05;20.75;51.57
65472;DHT22;52068;50.710;14.492;2022-11-15T00:53:31;20.72;51.57
65472;DHT22;52068;50.710;14.492;2022-11-15T00:55:56;20.71;51.45
65472;DHT22;52068;50.710;14.492;2022-11-15T00:58:21;20.67;51.45
65472;DHT22;52068;50.710;14.492;2022-11-15T01:00:46;20.62;51.41
65472;DHT22;52068;50.710;14.492;2022-11-15T01:03:12;20.64;51.71
65472;DHT22;52068;50.710;14.492;2022-11-15T01:05:37;20.58;51.62
65472;DHT22;52068;50.710;14.492;2022-11-15T01:08:03;20.55;51.64
65472;DHT22;52068;50.710;14.492;2022-11-15T01:10:28;20.51;51.72
65472;DHT22;52068;50.710;14.492;2022-11-15T01:12:54;20.44;51.66
65472;DHT22;52068;50.710;14.492;2022-11-15T01:15:19;20.47;51.48
65472;DHT22;52068;50.710;14.492;2022-11-15T01:17:44;20.41;51.48
65472;DHT22;52068;50.710;14.492;2022-11-15T01:20:10;20.40;51.38
65472;DHT22;52068;50.710;14.492;2022-11-15T01:22:35;20.40;51.46
65472;DHT22;52068;50.710;14.492;2022-11-15T01:25:00;20.47;51.32
65472;DHT22;52068;50.710;14.492;2022-11-15T01:27:26;20.68;51.13
65472;DHT22;52068;50.710;14.492;2022-11-15T01:29:51;20.93;50.27
65472;DHT22;52068;50.710;14.492;2022-11-15T01:32:16;21.20;49.47
65472;DHT22;52068;50.710;14.492;2022-11-15T01:34:41;21.43;49.21
65472;DHT22;52068;50.710;14.492;2022-11-15T01:37:07;21.64;49.03
65472;DHT22;52068;50.710;14.492;2022-11-15T01:39:32;21.74;48.82
65472;DHT22;52068;50.710;14.492;2022-11-15T01:41:57;21.77;48.57
65472;DHT22;52068;50.710;14.492;2022-11-15T01:47:08;21.70;48.80
65472;DHT22;52068;50.710;14.492;2022-11-15T01:49:35;21.64;49.28
65472;DHT22;52068;50.710;14.492;2022-11-15T01:52:03;21.55;49.60
65472;DHT22;52068;50.710;14.492;2022-11-15T01:54:29;21.50;49.61
65472;DHT22;52068;50.710;14.492;2022-11-15T01:57:02;21.42;49.91
65472;DHT22;52068;50.710;14.492;2022-11-15T01:59:29;21.34;50.12
65472;DHT22;52068;50.710;14.492;2022-11-15T02:01:54;21.26;50.11
65472;DHT22;52068;50.710;14.492;2022-11-15T02:04:21;21.19;50.09
65472;DHT22;52068;50.710;14.492;2022-11-15T02:06:48;21.12;50.02
65472;DHT22;52068;50.710;14.492;2022-11-15T02:09:13;21.06;50.08
65472;DHT22;52068;50.710;14.492;2022-11-15T02:11:39;21.00;50.25
65472;DHT22;52068;50.710;14.492;2022-11-15T02:14:04;20.93;50.45
65472;DHT22;52068;50.710;14.492;2022-11-15T02:32:23;20.56;51.03
65472;DHT22;52068;50.710;14.492;2022-11-15T02:34:58;20.59;50.96
65472;DHT22;52068;50.710;14.492;2022-11-15T02:37:30;20.62;50.92
65472;DHT22;52068;50.710;14.492;2022-11-15T02:45:06;21.16;49.84
65472;DHT22;52068;50.710;14.492;2022-11-15T02:47:33;21.27;49.51
65472;DHT22;52068;50.710;14.492;2022-11-15T02:50:07;21.40;49.04
65472;DHT22;52068;50.710;14.492;2022-11-15T02:52:33;21.42;49.13
65472;DHT22;52068;50.710;14.492;2022-11-15T02:54:59;21.43;49.16
65472;DHT22;52068;50.710;14.492;2022-11-15T03:00:10;21.36;49.33
65472;DHT22;52068;50.710;14.492;2022-11-15T03:02:39;21.34;49.88
65472;DHT22;52068;50.710;14.492;2022-11-15T03:05:14;21.26;49.86
65472;DHT22;52068;50.710;14.492;2022-11-15T03:07:46;21.19;49.97
65472;DHT22;52068;50.710;14.492;2022-11-15T03:10:17;21.13;50.16
65472;DHT22;52068;50.710;14.492;2022-11-15T03:12:51;21.04;50.25
65472;DHT22;52068;50.710;14.492;2022-11-15T03:15:24;20.98;50.33
65472;DHT22;52068;50.710;14.492;2022-11-15T03:17:55;20.92;50.45
65472;DHT22;52068;50.710;14.492;2022-11-15T03:20:23;20.85;50.71
65472;DHT22;52068;50.710;14.492;2022-11-15T03:22:50;20.78;50.59
65472;DHT22;52068;50.710;14.492;2022-11-15T03:25:17;20.73;50.68
65472;DHT22;52068;50.710;14.492;2022-11-15T03:27:44;20.67;50.85
65472;DHT22;52068;50.710;14.492;2022-11-15T03:30:11;20.62;50.73
65472;DHT22;52068;50.710;14.492;2022-11-15T03:32:44;20.58;50.87
65472;DHT22;52068;50.710;14.492;2022-11-15T03:35:14;20.52;51.00
65472;DHT22;52068;50.710;14.492;2022-11-15T03:40:07;20.47;51.39
65472;DHT22;52068;50.710;14.492;2022-11-15T03:46:01;20.86;50.41
65472;DHT22;52068;50.710;14.492;2022-11-15T03:48:10;21.23;49.71
65472;DHT22;52068;50.710;14.492;2022-11-15T03:50:38;21.46;49.19
65472;DHT22;52068;50.710;14.492;2022-11-15T03:53:03;21.65;48.77
65472;DHT22;52068;50.710;14.492;2022-11-15T03:55:28;21.73;48.21
65472;DHT22;52068;50.710;14.492;2022-11-15T03:57:57;21.75;48.15
65472;DHT22;52068;50.710;14.492;2022-11-15T04:00:23;21.73;48.13
65472;DHT22;52068;50.710;14.492;2022-11-15T04:02:49;21.70;48.37
65472;DHT22;52068;50.710;14.492;2022-11-15T04:05:14;21.65;48.45
65472;DHT22;52068;50.710;14.492;2022-11-15T04:07:41;21.57;48.73
65472;DHT22;52068;50.710;14.492;2022-11-15T04:10:06;21.51;49.13
65472;DHT22;52068;50.710;14.492;2022-11-15T04:12:32;21.40;49.45
65472;DHT22;52068;50.710;14.492;2022-11-15T04:15:03;21.32;49.35
65472;DHT22;52068;50.710;14.492;2022-11-15T04:17:41;21.26;49.59
65472;DHT22;52068;50.710;14.492;2022-11-15T04:20:08;21.14;49.59
65472;DHT22;52068;50.710;14.492;2022-11-15T04:22:53;21.03;49.64
65472;DHT22;52068;50.710;14.492;2022-11-15T04:25:37;20.95;49.79
65472;DHT22;52068;50.710;14.492;2022-11-15T04:28:02;20.88;50.05
65472;DHT22;52068;50.710;14.492;2022-11-15T04:30:27;20.82;50.03
65472;DHT22;52068;50.710;14.492;2022-11-15T04:32:52;20.75;49.74
65472;DHT22;52068;50.710;14.492;2022-11-15T04:35:18;20.68;50.10
65472;DHT22;52068;50.710;14.492;2022-11-15T04:37:43;20.62;50.31
65472;DHT22;52068;50.710;14.492;2022-11-15T04:40:08;20.58;50.49
65472;DHT22;52068;50.710;14.492;2022-11-15T04:42:34;20.49;50.64
65472;DHT22;52068;50.710;14.492;2022-11-15T04:44:59;20.49;50.92
65472;DHT22;52068;50.710;14.492;2022-11-15T04:47:24;20.64;50.35
65472;DHT22;52068;50.710;14.492;2022-11-15T04:49:50;20.91;50.07
65472;DHT22;52068;50.710;14.492;2022-11-15T04:52:15;21.20;49.25
65472;DHT22;52068;50.710;14.492;2022-11-15T04:54:40;21.46;48.60
65472;DHT22;52068;50.710;14.492;2022-11-15T04:57:07;21.67;48.22
65472;DHT22;52068;50.710;14.492;2022-11-15T04:59:32;21.74;48.04
65472;DHT22;52068;50.710;14.492;2022-11-15T05:01:57;21.78;48.08
65472;DHT22;52068;50.710;14.492;2022-11-15T05:04:23;21.77;47.60
65472;DHT22;52068;50.710;14.492;2022-11-15T05:06:48;21.75;47.77
65472;DHT22;52068;50.710;14.492;2022-11-15T05:09:14;21.71;48.07
65472;DHT22;52068;50.710;14.492;2022-11-15T05:11:40;21.65;48.22
65472;DHT22;52068;50.710;14.492;2022-11-15T05:14:05;21.58;48.60
65472;DHT22;52068;50.710;14.492;2022-11-15T05:16:31;21.49;48.81
65472;DHT22;52068;50.710;14.492;2022-11-15T05:18:56;21.39;49.19
65472;DHT22;52068;50.710;14.492;2022-11-15T05:21:21;21.32;49.34
65472;DHT22;52068;50.710;14.492;2022-11-15T05:23:47;21.22;49.32
65472;DHT22;52068;50.710;14.492;2022-11-15T05:26:12;21.13;49.49
65472;DHT22;52068;50.710;14.492;2022-11-15T05:28:38;21.06;49.72
65472;DHT22;52068;50.710;14.492;2022-11-15T05:31:04;20.98;49.75
65472;DHT22;52068;50.710;14.492;2022-11-15T05:33:30;20.91;49.74
65472;DHT22;52068;50.710;14.492;2022-11-15T05:36:07;20.82;49.55
65472;DHT22;52068;50.710;14.492;2022-11-15T05:38:35;20.75;49.78
65472;DHT22;52068;50.710;14.492;2022-11-15T05:41:00;20.68;49.86
65472;DHT22;52068;50.710;14.492;2022-11-15T05:43:26;20.61;50.37
65472;DHT22;52068;50.710;14.492;2022-11-15T05:45:52;20.56;50.77
65472;DHT22;52068;50.710;14.492;2022-11-15T05:48:17;20.49;51.40
65472;DHT22;52068;50.710;14.492;2022-11-15T05:50:43;20.61;51.12
65472;DHT22;52068;50.710;14.492;2022-11-15T05:53:11;20.83;50.06
65472;DHT22;52068;50.710;14.492;2022-11-15T05:55:38;21.20;49.27
65472;DHT22;52068;50.710;14.492;2022-11-15T05:58:04;21.51;48.52
65472;DHT22;52068;50.710;14.492;2022-11-15T06:00:29;21.73;48.21
65472;DHT22;52068;50.710;14.492;2022-11-15T06:02:54;21.84;48.12
65472;DHT22;52068;50.710;14.492;2022-11-15T06:05:19;21.92;47.86
65472;DHT22;52068;50.710;14.492;2022-11-15T06:07:45;21.92;47.82
65472;DHT22;52068;50.710;14.492;2022-11-15T06:10:10;21.91;47.84
65472;DHT22;52068;50.710;14.492;2022-11-15T06:12:35;21.88;47.66
65472;DHT22;52068;50.710;14.492;2022-11-15T06:15:00;21.85;47.59
65472;DHT22;52068;50.710;14.492;2022-11-15T06:17:26;21.80;47.95
65472;DHT22;52068;50.710;14.492;2022-11-15T06:19:51;21.73;48.16
65472;DHT22;52068;50.710;14.492;2022-11-15T06:22:16;21.63;48.27
65472;DHT22;52068;50.710;14.492;2022-11-15T06:24:41;21.53;48.35
65472;DHT22;52068;50.710;14.492;2022-11-15T06:27:08;21.44;48.64
65472;DHT22;52068;50.710;14.492;2022-11-15T06:29:34;21.36;48.69
65472;DHT22;52068;50.710;14.492;2022-11-15T06:31:59;21.27;48.95
65472;DHT22;52068;50.710;14.492;2022-11-15T06:34:24;21.18;48.90
65472;DHT22;52068;50.710;14.492;2022-11-15T06:36:49;21.07;49.22
65472;DHT22;52068;50.710;14.492;2022-11-15T06:39:15;20.98;49.12
65472;DHT22;52068;50.710;14.492;2022-11-15T06:41:40;20.91;49.13
65472;DHT22;52068;50.710;14.492;2022-11-15T06:44:05;20.82;49.79
65472;DHT22;52068;50.710;14.492;2022-11-15T06:46:30;20.75;50.09
65472;DHT22;52068;50.710;14.492;2022-11-15T06:48:56;20.71;50.41
65472;DHT22;52068;50.710;14.492;2022-11-15T06:51:21;20.64;50.66
65472;DHT22;52068;50.710;14.492;2022-11-15T06:53:46;20.62;50.46
65472;DHT22;52068;50.710;14.492;2022-11-15T06:56:11;20.76;50.23
65472;DHT22;52068;50.710;14.492;2022-11-15T06:58:37;21.02;50.42
65472;DHT22;52068;50.710;14.492;2022-11-15T07:01:03;21.30;49.02
65472;DHT22;52068;50.710;14.492;2022-11-15T07:03:29;21.54;48.18
65472;DHT22;52068;50.710;14.492;2022-11-15T07:05:55;21.71;47.43
65472;DHT22;52068;50.710;14.492;2022-11-15T07:08:21;21.85;46.68
65472;DHT22;52068;50.710;14.492;2022-11-15T07:10:46;21.92;46.65
65472;DHT22;52068;50.710;14.492;2022-11-15T07:13:11;21.94;46.40
65472;DHT22;52068;50.710;14.492;2022-11-15T07:15:37;21.90;46.36
65472;DHT22;52068;50.710;14.492;2022-11-15T07:18:02;21.78;46.27
65472;DHT22;52068;50.710;14.492;2022-11-15T07:20:27;21.71;46.60
65472;DHT22;52068;50.710;14.492;2022-11-15T07:22:59;21.65;46.89
65472;DHT22;52068;50.710;14.492;2022-11-15T07:25:24;21.54;45.73
65472;DHT22;52068;50.710;14.492;2022-11-15T07:27:56;21.47;45.93
65472;DHT22;52068;50.710;14.492;2022-11-15T07:30:21;21.37;44.39
65472;DHT22;52068;50.710;14.492;2022-11-15T07:32:46;21.27;43.39
65472;DHT22;52068;50.710;14.492;2022-11-15T07:35:11;21.20;42.18
65472;DHT22;52068;50.710;14.492;2022-11-15T07:37:37;21.13;41.47
65472;DHT22;52068;50.710;14.492;2022-11-15T07:40:02;21.09;42.20
65472;DHT22;52068;50.710;14.492;2022-11-15T07:42:27;21.03;43.65
65472;DHT22;52068;50.710;14.492;2022-11-15T07:45:14;20.95;43.79
65472;DHT22;52068;50.710;14.492;2022-11-15T07:47:39;20.89;44.40
65472;DHT22;52068;50.710;14.492;2022-11-15T07:50:05;20.82;44.72
65472;DHT22;52068;50.710;14.492;2022-11-15T07:52:30;20.85;45.04
65472;DHT22;52068;50.710;14.492;2022-11-15T07:54:55;21.04;44.94
65472;DHT22;52068;50.710;14.492;2022-11-15T07:57:20;21.42;44.54
65472;DHT22;52068;50.710;14.492;2022-11-15T07:59:46;21.87;43.81
65472;DHT22;52068;50.710;14.492;2022-11-15T08:02:11;22.32;42.93
65472;DHT22;52068;50.710;14.492;2022-11-15T08:04:36;22.66;42.13
65472;DHT22;52068;50.710;14.492;2022-11-15T08:07:02;22.77;42.16
65472;DHT22;52068;50.710;14.492;2022-11-15T08:09:27;22.82;41.79
65472;DHT22;52068;50.710;14.492;2022-11-15T08:11:52;22.83;41.97
65472;DHT22;52068;50.710;14.492;2022-11-15T08:14:17;22.76;42.21
65472;DHT22;52068;50.710;14.492;2022-11-15T08:16:43;22.66;42.28
65472;DHT22;52068;50.710;14.492;2022-11-15T08:19:08;22.57;42.23
65472;DHT22;52068;50.710;14.492;2022-11-15T08:21:33;22.51;42.52
65472;DHT22;52068;50.710;14.492;2022-11-15T08:23:58;22.38;42.81
65472;DHT22;52068;50.710;14.492;2022-11-15T08:26:24;22.31;43.06
65472;DHT22;52068;50.710;14.492;2022-11-15T08:28:51;22.24;43.26
65472;DHT22;52068;50.710;14.492;2022-11-15T08:31:17;22.15;43.24
65472;DHT22;52068;50.710;14.492;2022-11-15T08:33:43;22.05;43.44
65472;DHT22;52068;50.710;14.492;2022-11-15T08:36:11;21.94;43.57
65472;DHT22;52068;50.710;14.492;2022-11-15T08:38:37;21.88;44.58
65472;DHT22;52068;50.710;14.492;2022-11-15T08:41:03;21.83;44.81
65472;DHT22;52068;50.710;14.492;2022-11-15T08:43:29;21.75;44.69
65472;DHT22;52068;50.710;14.492;2022-11-15T08:45:58;21.70;44.64
65472;DHT22;52068;50.710;14.492;2022-11-15T08:48:23;21.64;44.81
65472;DHT22;52068;50.710;14.492;2022-11-15T08:50:48;21.58;45.97
65472;DHT22;52068;50.710;14.492;2022-11-15T08:53:14;21.53;46.12
65472;DHT22;52068;50.710;14.492;2022-11-15T08:55:39;21.50;46.01
65472;DHT22;52068;50.710;14.492;2022-11-15T08:58:05;21.46;45.77
65472;DHT22;52068;50.710;14.492;2022-11-15T09:00:30;21.37;45.95
65472;DHT22;52068;50.710;14.492;2022-11-15T09:02:56;21.33;46.13
65472;DHT22;52068;50.710;14.492;2022-11-15T09:05:21;21.30;46.10
65472;DHT22;52068;50.710;14.492;2022-11-15T09:07:46;21.26;46.15
65472;DHT22;52068;50.710;14.492;2022-11-15T09:10:11;21.19;46.80
65472;DHT22;52068;50.710;14.492;2022-11-15T09:12:37;21.14;46.92
65472;DHT22;52068;50.710;14.492;2022-11-15T09:15:02;21.13;47.05
65472;DHT22;52068;50.710;14.492;2022-11-15T09:17:28;21.10;47.06
65472;DHT22;52068;50.710;14.492;2022-11-15T09:19:53;21.13;47.15
65472;DHT22;52068;50.710;14.492;2022-11-15T09:22:18;21.13;47.28
65472;DHT22;52068;50.710;14.492;2022-11-15T09:24:43;21.19;47.24
65472;DHT22;52068;50.710;14.492;2022-11-15T09:27:09;21.16;47.47
65472;DHT22;52068;50.710;14.492;2022-11-15T09:29:34;21.22;47.53
65472;DHT22;52068;50.710;14.492;2022-11-15T09:31:59;21.22;47.65
65472;DHT22;52068;50.710;14.492;2022-11-15T09:34:25;21.19;47.70
65472;DHT22;52068;50.710;14.492;2022-11-15T09:36:50;21.20;47.73
65472;DHT22;52068;50.710;14.492;2022-11-15T09:39:15;21.18;47.67
65472;DHT22;52068;50.710;14.492;2022-11-15T09:44:14;21.12;47.24
65472;DHT22;52068;50.710;14.492;2022-11-15T09:49:15;21.07;47.27
65472;DHT22;52068;50.710;14.492;2022-11-15T09:51:49;21.09;47.30
65472;DHT22;52068;50.710;14.492;2022-11-15T09:54:23;21.07;47.12
65472;DHT22;52068;50.710;14.492;2022-11-15T09:56:50;21.13;47.07
65472;DHT22;52068;50.710;14.492;2022-11-15T09:59:38;21.16;47.01
65472;DHT22;52068;50.710;14.492;2022-11-15T10:04:33;21.19;47.04
65472;DHT22;52068;50.710;14.492;2022-11-15T10:09:47;21.19;47.11
65472;DHT22;52068;50.710;14.492;2022-11-15T10:12:15;21.14;47.27
65472;DHT22;52068;50.710;14.492;2022-11-15T10:14:42;21.12;47.44
65472;DHT22;52068;50.710;14.492;2022-11-15T10:17:14;21.12;47.53
65472;DHT22;52068;50.710;14.492;2022-11-15T10:22:35;21.13;47.54
65472;DHT22;52068;50.710;14.492;2022-11-15T10:27:28;21.10;47.32
65472;DHT22;52068;50.710;14.492;2022-11-15T10:29:54;21.07;47.53
65472;DHT22;52068;50.710;14.492;2022-11-15T10:32:20;21.09;47.47
65472;DHT22;52068;50.710;14.492;2022-11-15T10:34:46;21.10;47.77
65472;DHT22;52068;50.710;14.492;2022-11-15T10:37:11;21.09;47.57
65472;DHT22;52068;50.710;14.492;2022-11-15T10:39:36;21.07;47.66
65472;DHT22;52068;50.710;14.492;2022-11-15T10:42:15;21.06;47.82
65472;DHT22;52068;50.710;14.492;2022-11-15T10:44:41;21.09;47.61
65472;DHT22;52068;50.710;14.492;2022-11-15T10:47:20;21.04;47.51
65472;DHT22;52068;50.710;14.492;2022-11-15T10:49:53;21.02;47.40
65472;DHT22;52068;50.710;14.492;2022-11-15T10:52:18;20.96;47.36
65472;DHT22;52068;50.710;14.492;2022-11-15T10:55:03;20.98;47.37
65472;DHT22;52068;50.710;14.492;2022-11-15T10:57:30;20.95;47.46
65472;DHT22;52068;50.710;14.492;2022-11-15T11:02:38;20.93;47.32
65472;DHT22;52068;50.710;14.492;2022-11-15T11:07:48;20.96;47.33
65472;DHT22;52068;50.710;14.492;2022-11-15T11:10:20;20.99;47.27
65472;DHT22;52068;50.710;14.492;2022-11-15T11:12:46;21.00;47.23
65472;DHT22;52068;50.710;14.492;2022-11-15T11:15:12;21.03;47.18
65472;DHT22;52068;50.710;14.492;2022-11-15T11:25:21;21.04;47.23
65472;DHT22;52068;50.710;14.492;2022-11-15T11:30:24;21.04;47.29
65472;DHT22;52068;50.710;14.492;2022-11-15T11:37:51;21.07;47.40
65472;DHT22;52068;50.710;14.492;2022-11-15T11:42:47;21.13;47.71
65472;DHT22;52068;50.710;14.492;2022-11-15T11:47:47;21.12;47.75
65472;DHT22;52068;50.710;14.492;2022-11-15T11:50:17;21.10;47.71
65472;DHT22;52068;50.710;14.492;2022-11-15T11:52:55;21.10;47.93
65472;DHT22;52068;50.710;14.492;2022-11-15T11:55:40;21.12;48.08
65472;DHT22;52068;50.710;14.492;2022-11-15T11:58:15;21.16;48.08
65472;DHT22;52068;50.710;14.492;2022-11-15T12:00:49;21.16;48.41
65472;DHT22;52068;50.710;14.492;2022-11-15T12:05:42;21.13;48.43
65472;DHT22;52068;50.710;14.492;2022-11-15T12:10:40;21.12;48.33
65472;DHT22;52068;50.710;14.492;2022-11-15T12:13:25;21.18;48.01
65472;DHT22;52068;50.710;14.492;2022-11-15T12:15:53;21.22;48.11
65472;DHT22;52068;50.710;14.492;2022-11-15T12:18:20;21.20;47.97
65472;DHT22;52068;50.710;14.492;2022-11-15T12:20:53;21.19;48.02
65472;DHT22;52068;50.710;14.492;2022-11-15T12:23:21;21.22;47.93
65472;DHT22;52068;50.710;14.492;2022-11-15T12:26:10;21.19;47.74
65472;DHT22;52068;50.710;14.492;2022-11-15T12:31:09;21.24;47.86
65472;DHT22;52068;50.710;14.492;2022-11-15T12:33:37;21.22;47.85
65472;DHT22;52068;50.710;14.492;2022-11-15T12:36:03;21.22;47.84
65472;DHT22;52068;50.710;14.492;2022-11-15T12:41:16;21.23;47.74
65472;DHT22;52068;50.710;14.492;2022-11-15T12:43:42;21.22;47.71
65472;DHT22;52068;50.710;14.492;2022-11-15T12:46:12;21.20;47.72
65472;DHT22;52068;50.710;14.492;2022-11-15T12:51:03;21.18;47.73
65472;DHT22;52068;50.710;14.492;2022-11-15T12:53:29;21.16;47.75
65472;DHT22;52068;50.710;14.492;2022-11-15T12:58:27;21.12;47.93
65472;DHT22;52068;50.710;14.492;2022-11-15T13:00:53;21.12;48.01
65472;DHT22;52068;50.710;14.492;2022-11-15T13:03:20;21.14;48.07
65472;DHT22;52068;50.710;14.492;2022-11-15T13:05:53;21.14;47.98
65472;DHT22;52068;50.710;14.492;2022-11-15T13:08:39;21.16;48.02
65472;DHT22;52068;50.710;14.492;2022-11-15T13:11:41;21.18;47.67
65472;DHT22;52068;50.710;14.492;2022-11-15T13:13:59;21.20;47.83
65472;DHT22;52068;50.710;14.492;2022-11-15T13:16:24;21.22;47.74
65472;DHT22;52068;50.710;14.492;2022-11-15T13:18:54;21.23;47.87
65472;DHT22;52068;50.710;14.492;2022-11-15T13:21:20;21.23;47.69
65472;DHT22;52068;50.710;14.492;2022-11-15T13:24:05;21.22;47.65
65472;DHT22;52068;50.710;14.492;2022-11-15T13:26:35;21.19;47.57
65472;DHT22;52068;50.710;14.492;2022-11-15T13:29:03;21.19;47.62
65472;DHT22;52068;50.710;14.492;2022-11-15T13:31:35;21.20;47.35
65472;DHT22;52068;50.710;14.492;2022-11-15T13:34:03;21.18;47.30
65472;DHT22;52068;50.710;14.492;2022-11-15T13:36:38;21.16;47.27
65472;DHT22;52068;50.710;14.492;2022-11-15T13:39:05;21.16;47.31
65472;DHT22;52068;50.710;14.492;2022-11-15T13:41:31;21.20;47.34
65472;DHT22;52068;50.710;14.492;2022-11-15T13:43:57;21.19;47.56
65472;DHT22;52068;50.710;14.492;2022-11-15T13:46:24;21.22;47.39
65472;DHT22;52068;50.710;14.492;2022-11-15T13:48:54;21.24;47.40
65472;DHT22;52068;50.710;14.492;2022-11-15T13:51:22;21.23;46.97
65472;DHT22;52068;50.710;14.492;2022-11-15T13:56:43;21.22;47.28
65472;DHT22;52068;50.710;14.492;2022-11-15T13:59:31;21.22;47.52
65472;DHT22;52068;50.710;14.492;2022-11-15T14:01:55;21.23;47.28
65472;DHT22;52068;50.710;14.492;2022-11-15T14:04:22;21.24;46.97
65472;DHT22;52068;50.710;14.492;2022-11-15T14:06:57;21.22;47.05
65472;DHT22;52068;50.710;14.492;2022-11-15T14:11:50;21.22;47.17
65472;DHT22;52068;50.710;14.492;2022-11-15T14:14:16;21.18;47.11
65472;DHT22;52068;50.710;14.492;2022-11-15T14:16:45;21.16;47.12
65472;DHT22;52068;50.710;14.492;2022-11-15T14:24:30;21.13;47.14
65472;DHT22;52068;50.710;14.492;2022-11-15T14:26:55;21.14;47.16
65472;DHT22;52068;50.710;14.492;2022-11-15T14:29:29;21.14;47.16
65472;DHT22;52068;50.710;14.492;2022-11-15T14:34:39;21.13;47.29
65472;DHT22;52068;50.710;14.492;2022-11-15T14:37:04;21.16;47.36
65472;DHT22;52068;50.710;14.492;2022-11-15T14:39:29;21.14;47.27
65472;DHT22;52068;50.710;14.492;2022-11-15T14:41:55;21.16;47.41
65472;DHT22;52068;50.710;14.492;2022-11-15T14:44:20;21.18;47.43
65472;DHT22;52068;50.710;14.492;2022-11-15T14:46:46;21.16;47.35
65472;DHT22;52068;50.710;14.492;2022-11-15T14:49:13;21.16;47.41
65472;DHT22;52068;50.710;14.492;2022-11-15T14:51:39;21.18;47.45
65472;DHT22;52068;50.710;14.492;2022-11-15T14:54:04;21.22;47.72
65472;DHT22;52068;50.710;14.492;2022-11-15T14:56:30;21.22;47.98
65472;DHT22;52068;50.710;14.492;2022-11-15T14:58:55;21.23;47.95
65472;DHT22;52068;50.710;14.492;2022-11-15T15:03:45;21.19;47.58
65472;DHT22;52068;50.710;14.492;2022-11-15T15:06:11;21.19;47.78
65472;DHT22;52068;50.710;14.492;2022-11-15T15:08:38;21.16;47.97
65472;DHT22;52068;50.710;14.492;2022-11-15T15:11:03;21.16;47.83
65472;DHT22;52068;50.710;14.492;2022-11-15T15:13:32;21.10;48.05
65472;DHT22;52068;50.710;14.492;2022-11-15T15:15:57;21.06;48.16
65472;DHT22;52068;50.710;14.492;2022-11-15T15:18:22;21.03;48.46
65472;DHT22;52068;50.710;14.492;2022-11-15T15:20:49;21.03;48.74
65472;DHT22;52068;50.710;14.492;2022-11-15T15:23:18;20.99;48.64
65472;DHT22;52068;50.710;14.492;2022-11-15T15:25:43;21.00;48.79
65472;DHT22;52068;50.710;14.492;2022-11-15T15:28:10;21.02;48.78
65472;DHT22;52068;50.710;14.492;2022-11-15T15:30:35;21.02;48.87
65472;DHT22;52068;50.710;14.492;2022-11-15T15:33:01;20.99;48.75
65472;DHT22;52068;50.710;14.492;2022-11-15T15:35:28;21.00;48.63
65472;DHT22;52068;50.710;14.492;2022-11-15T15:37:54;21.00;48.76
65472;DHT22;52068;50.710;14.492;2022-11-15T15:40:20;21.00;48.85
65472;DHT22;52068;50.710;14.492;2022-11-15T15:42:46;21.02;48.91
65472;DHT22;52068;50.710;14.492;2022-11-15T15:45:12;21.02;48.86
65472;DHT22;52068;50.710;14.492;2022-11-15T15:47:37;20.99;48.93
65472;DHT22;52068;50.710;14.492;2022-11-15T15:50:03;20.98;49.10
65472;DHT22;52068;50.710;14.492;2022-11-15T15:52:28;20.99;48.99
65472;DHT22;52068;50.710;14.492;2022-11-15T15:54:54;21.00;49.00
65472;DHT22;52068;50.710;14.492;2022-11-15T15:57:19;21.04;49.00
65472;DHT22;52068;50.710;14.492;2022-11-15T15:59:44;21.02;48.87
65472;DHT22;52068;50.710;14.492;2022-11-15T16:02:12;21.02;48.76
65472;DHT22;52068;50.710;14.492;2022-11-15T16:04:38;21.02;48.90
65472;DHT22;52068;50.710;14.492;2022-11-15T16:07:03;21.00;48.80
65472;DHT22;52068;50.710;14.492;2022-11-15T16:09:29;21.03;48.88
65472;DHT22;52068;50.710;14.492;2022-11-15T16:12:20;20.98;49.05
65472;DHT22;52068;50.710;14.492;2022-11-15T16:14:45;20.96;49.01
65472;DHT22;52068;50.710;14.492;2022-11-15T16:17:17;20.98;49.51
65472;DHT22;52068;50.710;14.492;2022-11-15T16:19:43;21.02;49.60
65472;DHT22;52068;50.710;14.492;2022-11-15T16:22:09;20.96;49.45
65472;DHT22;52068;50.710;14.492;2022-11-15T16:24:34;20.91;49.10
65472;DHT22;52068;50.710;14.492;2022-11-15T16:26:59;20.92;48.97
65472;DHT22;52068;50.710;14.492;2022-11-15T16:29:24;20.92;49.15
65472;DHT22;52068;50.710;14.492;2022-11-15T16:31:50;20.91;49.05
65472;DHT22;52068;50.710;14.492;2022-11-15T16:34:15;20.91;49.06
65472;DHT22;52068;50.710;14.492;2022-11-15T16:36:41;20.92;49.11
65472;DHT22;52068;50.710;14.492;2022-11-15T16:39:08;20.89;49.29
65472;DHT22;52068;50.710;14.492;2022-11-15T16:41:35;20.86;49.13
65472;DHT22;52068;50.710;14.492;2022-11-15T16:44:00;20.86;49.02
65472;DHT22;52068;50.710;14.492;2022-11-15T16:46:26;20.88;49.09
65472;DHT22;52068;50.710;14.492;2022-11-15T16:48:52;20.85;49.04
65472;DHT22;52068;50.710;14.492;2022-11-15T16:51:21;20.88;49.11
65472;DHT22;52068;50.710;14.492;2022-11-15T16:53:46;20.92;49.00
65472;DHT22;52068;50.710;14.492;2022-11-15T16:58:42;21.03;48.64
65472;DHT22;52068;50.710;14.492;2022-11-15T17:01:10;21.10;48.53